Time;durP1;ratioP1;P1;durP2;ratioP2;P2;SDS_P1;SDS_P2;PMS_P1;PMS_P2;Temp;Humidity;BMP_temperature;BMP_pressure;BME280_temperature;BME280_humidity;BME280_pressure;Samples;Min_cycle;Max_cycle;Signal;HPM_P1;HPM_P2
2023/08/02 00:00:36;;;;;;;10.85;6.70;;;589.00;2432.00;;;;;;5110645;28;20028;-83
2023/08/02 00:03:02;;;;;;;10.50;6.07;;;564.00;2432.00;;;;;;5111027;28;20028;-83
2023/08/02 00:05:28;;;;;;;11.57;6.65;;;563.90;2432.00;;;;;;5094792;28;20391;-83
2023/08/02 00:07:54;;;;;;;12.55;7.55;;;563.70;2432.00;;;;;;5110684;28;20432;-83
2023/08/02 00:10:20;;;;;;;9.85;6.78;;;563.60;2432.00;;;;;;5110186;28;20052;-84
2023/08/02 00:12:46;;;;;;;7.55;6.20;;;563.60;2432.00;;;;;;5110459;28;20387;-83
2023/08/02 00:15:12;;;;;;;11.40;7.18;;;563.60;2432.00;;;;;;5095216;28;20028;-82
2023/08/02 00:17:37;;;;;;;9.88;6.53;;;563.60;2432.00;;;;;;5112323;28;20032;-82
2023/08/02 00:20:04;;;;;;;9.30;6.53;;;563.60;2432.00;;;;;;5111303;28;20020;-82
2023/08/02 00:22:30;;;;;;;9.32;6.72;;;563.60;2432.00;;;;;;5110641;28;20464;-84
2023/08/02 00:24:55;;;;;;;8.20;6.40;;;563.60;2432.00;;;;;;5093814;28;20099;-83
2023/08/02 00:27:21;;;;;;;9.48;6.68;;;563.60;2432.00;;;;;;5110401;28;20035;-83
2023/08/02 00:29:49;;;;;;;11.70;6.72;;;563.60;2432.00;;;;;;5110627;28;20031;-83
2023/08/02 00:32:14;;;;;;;10.13;6.50;;;563.60;2432.00;;;;;;5109956;28;20028;-84
2023/08/02 00:34:40;;;;;;;10.65;6.78;;;563.80;2432.00;;;;;;5110322;28;20046;-83
2023/08/02 00:37:06;;;;;;;13.95;6.82;;;563.70;2432.00;;;;;;5110220;28;20034;-84
2023/08/02 00:39:32;;;;;;;10.23;6.35;;;563.60;2432.00;;;;;;5109782;28;20024;-83
2023/08/02 00:41:57;;;;;;;11.57;6.60;;;563.50;2432.00;;;;;;5094339;28;20035;-83
2023/08/02 00:44:23;;;;;;;9.48;7.10;;;563.50;2432.00;;;;;;5106265;28;20020;-84
2023/08/02 00:46:49;;;;;;;13.00;7.13;;;563.60;2432.00;;;;;;5109795;28;20111;-82
2023/08/02 00:49:15;;;;;;;13.75;7.07;;;563.60;2432.00;;;;;;5110044;28;20055;-84
2023/08/02 00:51:41;;;;;;;9.20;6.78;;;563.70;2432.00;;;;;;5109906;28;20040;-84
2023/08/02 00:54:07;;;;;;;10.68;6.78;;;563.60;2432.00;;;;;;5109746;28;20034;-84
2023/08/02 00:56:33;;;;;;;10.38;6.82;;;563.60;2432.00;;;;;;5094005;28;20099;-83
2023/08/02 00:58:59;;;;;;;9.52;7.32;;;563.30;2432.00;;;;;;5109378;28;20111;-85
2023/08/02 01:01:25;;;;;;;12.82;7.15;;;538.50;2406.40;;;;;;5109984;28;20035;-82
2023/08/02 01:03:52;;;;;;;9.73;6.60;;;563.30;2432.00;;;;;;5110235;28;20055;-84
2023/08/02 01:06:45;;;;;;;10.68;6.35;;;563.30;2432.00;;;;;;5109661;28;20020;-83
2023/08/02 01:09:35;;;;;;;9.02;5.97;;;563.40;2432.00;;;;;;5113221;28;20472;-83
2023/08/02 01:12:08;;;;;;;9.07;6.38;;;563.50;2432.00;;;;;;5094302;28;20047;-83
2023/08/02 01:14:44;;;;;;;8.40;6.40;;;563.50;2432.00;;;;;;5090739;28;20024;-82
2023/08/02 01:17:12;;;;;;;11.90;7.38;;;563.50;2432.00;;;;;;5092851;28;20032;-85
2023/08/02 01:19:39;;;;;;;10.23;6.68;;;563.20;2432.00;;;;;;5092707;28;20357;-83
2023/08/02 01:22:04;;;;;;;9.68;6.72;;;538.30;2406.40;;;;;;5093010;28;20024;-83
2023/08/02 01:24:35;;;;;;;12.60;6.80;;;538.40;2406.40;;;;;;5092751;28;20024;-85
2023/08/02 01:27:08;;;;;;;13.70;6.68;;;538.40;2406.40;;;;;;5092446;28;20032;-84
2023/08/02 01:29:37;;;;;;;11.23;6.65;;;538.30;2406.40;;;;;;5092613;28;20452;-83
2023/08/02 01:32:05;;;;;;;10.07;6.57;;;538.00;2406.40;;;;;;5092560;28;20031;-83
2023/08/02 01:34:31;;;;;;;9.75;6.13;;;538.10;2406.40;;;;;;5092227;28;20032;-83
2023/08/02 01:36:57;;;;;;;10.77;6.40;;;538.30;2406.40;;;;;;5095328;28;20094;-83
2023/08/02 01:39:23;;;;;;;11.70;6.20;;;538.10;2406.40;;;;;;5096547;28;20032;-84
2023/08/02 01:41:48;;;;;;;11.85;6.47;;;538.20;2406.40;;;;;;5096141;28;20027;-83
2023/08/02 01:44:14;;;;;;;11.95;6.50;;;538.30;2406.40;;;;;;5096379;28;20052;-83
2023/08/02 01:46:40;;;;;;;9.45;7.38;;;538.30;2406.40;;;;;;5096466;28;20024;-82
2023/08/02 01:49:06;;;;;;;12.82;6.95;;;538.30;2406.40;;;;;;5096037;28;20028;-84
2023/08/02 01:51:31;;;;;;;9.50;6.75;;;538.40;2406.40;;;;;;5097708;28;20038;-83
2023/08/02 01:53:57;;;;;;;8.48;6.32;;;563.20;2432.00;;;;;;5096230;28;20027;-83
2023/08/02 01:56:23;;;;;;;10.07;6.55;;;538.50;2406.40;;;;;;5097422;28;20028;-83
2023/08/02 01:58:49;;;;;;;8.27;5.93;;;538.50;2406.40;;;;;;5097069;28;20047;-82
2023/08/02 02:01:14;;;;;;;8.65;6.10;;;538.50;2406.40;;;;;;5096412;28;20101;-83
2023/08/02 02:03:40;;;;;;;10.88;6.60;;;563.20;2432.00;;;;;;5095993;28;20452;-83
2023/08/02 02:06:06;;;;;;;10.48;6.03;;;538.50;2406.40;;;;;;5096230;28;20460;-84
2023/08/02 02:08:31;;;;;;;8.45;6.25;;;538.50;2406.40;;;;;;5095784;28;20475;-84
2023/08/02 02:10:57;;;;;;;19.02;7.13;;;538.40;2406.40;;;;;;5095793;28;20044;-84
2023/08/02 02:13:24;;;;;;;10.40;6.10;;;538.00;2406.40;;;;;;5096104;28;20533;-82
2023/08/02 02:15:50;;;;;;;8.38;6.43;;;537.80;2406.40;;;;;;5095822;28;20448;-82
2023/08/02 02:18:16;;;;;;;9.02;6.45;;;538.00;2406.40;;;;;;5096088;28;20032;-83
2023/08/02 02:20:42;;;;;;;12.38;6.82;;;538.10;2406.40;;;;;;5095672;28;20081;-85
2023/08/02 02:23:08;;;;;;;14.75;7.82;;;538.20;2406.40;;;;;;5095803;28;20028;-84
2023/08/02 02:25:34;;;;;;;8.90;7.45;;;538.10;2406.40;;;;;;5095581;28;20107;-82
2023/08/02 02:28:00;;;;;;;7.50;6.22;;;537.90;2406.40;;;;;;5095648;28;20490;-84
2023/08/02 02:30:26;;;;;;;8.90;6.38;;;538.00;2406.40;;;;;;5095250;28;20111;-83
2023/08/02 02:32:52;;;;;;;8.77;6.93;;;537.90;2406.40;;;;;;5095455;28;20028;-85
2023/08/02 02:35:18;;;;;;;9.82;6.80;;;538.00;2406.40;;;;;;5096618;28;20035;-85
2023/08/02 02:37:44;;;;;;;11.73;7.40;;;538.20;2406.40;;;;;;5095306;28;20036;-82
2023/08/02 02:40:10;;;;;;;14.85;7.25;;;538.30;2406.40;;;;;;5095566;28;20038;-83
2023/08/02 02:42:40;;;;;;;10.57;6.68;;;538.50;2406.40;;;;;;5095502;28;20031;-83
2023/08/02 02:45:08;;;;;;;11.35;7.30;;;538.50;2406.40;;;;;;5094415;28;20036;-84
2023/08/02 02:47:34;;;;;;;8.52;6.82;;;538.50;2406.40;;;;;;5111947;28;20456;-83
2023/08/02 02:49:59;;;;;;;11.43;7.22;;;538.50;2406.40;;;;;;5112303;28;20028;-82
2023/08/02 02:52:25;;;;;;;9.85;7.57;;;563.20;2432.00;;;;;;5111894;28;20028;-84
2023/08/02 02:54:51;;;;;;;13.45;7.07;;;538.50;2406.40;;;;;;5096263;28;20027;-85
2023/08/02 02:57:17;;;;;;;10.95;7.05;;;538.20;2406.40;;;;;;5136970;27;20054;-82
2023/08/02 02:59:43;;;;;;;13.65;6.75;;;538.00;2406.40;;;;;;5128105;27;20051;-85
2023/08/02 03:02:09;;;;;;;8.25;6.20;;;538.00;2406.40;;;;;;5114860;28;20028;-83
2023/08/02 03:04:35;;;;;;;11.10;6.53;;;538.20;2406.40;;;;;;5114287;28;20024;-83
2023/08/02 03:07:01;;;;;;;10.52;6.68;;;538.20;2406.40;;;;;;5112039;28;20107;-84
2023/08/02 03:09:27;;;;;;;8.95;6.85;;;537.90;2406.40;;;;;;5111861;28;20044;-83
2023/08/02 03:11:53;;;;;;;8.85;6.55;;;538.00;2406.40;;;;;;5102077;28;20029;-84
2023/08/02 03:14:19;;;;;;;9.82;7.15;;;538.00;2406.40;;;;;;5074596;28;20028;-84
2023/08/02 03:16:44;;;;;;;8.90;6.65;;;538.00;2406.40;;;;;;5074542;28;20028;-81
2023/08/02 03:19:11;;;;;;;10.30;7.38;;;538.20;2406.40;;;;;;5074171;28;20123;-82
2023/08/02 03:21:38;;;;;;;9.80;6.70;;;537.90;2406.40;;;;;;5074365;28;20028;-81
2023/08/02 03:24:04;;;;;;;9.57;6.80;;;538.20;2406.40;;;;;;5074259;28;20071;-81
2023/08/02 03:26:30;;;;;;;10.00;6.97;;;538.20;2406.40;;;;;;5074048;28;20035;-81
2023/08/02 03:28:56;;;;;;;9.77;6.60;;;538.20;2406.40;;;;;;5075597;28;20024;-82
2023/08/02 03:31:22;;;;;;;8.38;6.20;;;538.30;2406.40;;;;;;5075543;28;20135;-80
2023/08/02 03:33:48;;;;;;;9.63;7.18;;;538.40;2406.40;;;;;;5074688;28;20051;-80
2023/08/02 03:36:14;;;;;;;9.40;6.35;;;538.40;2406.40;;;;;;5074033;28;20024;-81
2023/08/02 03:38:41;;;;;;;10.35;6.90;;;538.50;2406.40;;;;;;5073868;28;20034;-80
2023/08/02 03:41:07;;;;;;;9.05;6.03;;;563.20;2432.00;;;;;;5074840;28;20070;-81
2023/08/02 03:43:33;;;;;;;10.52;7.13;;;563.30;2432.00;;;;;;5073780;28;20111;-83
2023/08/02 03:45:58;;;;;;;11.70;8.18;;;538.40;2406.40;;;;;;5075009;28;20107;-82
2023/08/02 03:48:28;;;;;;;12.10;9.07;;;538.50;2406.40;;;;;;5073415;28;20029;-81
2023/08/02 03:50:57;;;;;;;15.60;8.77;;;538.20;2406.40;;;;;;5073748;28;20074;-81
2023/08/02 03:53:23;;;;;;;17.65;9.20;;;537.70;2406.40;;;;;;5073961;28;20099;-82
2023/08/02 03:55:49;;;;;;;18.52;9.68;;;512.90;2380.80;;;;;;5074551;28;20032;-84
2023/08/02 03:58:15;;;;;;;21.08;9.95;;;537.90;2406.40;;;;;;5088442;28;20028;-82
2023/08/02 04:00:41;;;;;;;19.35;11.88;;;538.00;2406.40;;;;;;5093410;28;20063;-82
2023/08/02 04:03:06;;;;;;;14.85;9.82;;;538.10;2406.40;;;;;;5093850;28;20070;-83
2023/08/02 04:05:32;;;;;;;10.43;7.97;;;538.00;2406.40;;;;;;5093810;28;20073;-82
2023/08/02 04:07:58;;;;;;;14.32;8.73;;;538.20;2406.40;;;;;;5093764;28;20027;-83
2023/08/02 04:10:24;;;;;;;15.55;8.93;;;538.00;2406.40;;;;;;5093449;28;20048;-82
2023/08/02 04:12:53;;;;;;;12.52;7.80;;;537.90;2406.40;;;;;;5094969;28;20031;-82
2023/08/02 04:15:19;;;;;;;14.38;8.50;;;537.90;2406.40;;;;;;5093147;28;20480;-81
2023/08/02 04:17:45;;;;;;;12.25;8.25;;;538.00;2406.40;;;;;;5093665;28;20062;-82
2023/08/02 04:20:11;;;;;;;12.27;8.23;;;537.90;2406.40;;;;;;5093395;28;20053;-83
2023/08/02 04:22:37;;;;;;;13.20;7.47;;;537.90;2406.40;;;;;;5093549;28;20456;-82
2023/08/02 04:25:03;;;;;;;13.02;7.18;;;537.70;2406.40;;;;;;5097078;28;20020;-81
2023/08/02 04:27:29;;;;;;;12.82;7.32;;;537.90;2406.40;;;;;;5095434;28;20076;-83
2023/08/02 04:29:55;;;;;;;14.23;7.40;;;537.70;2406.40;;;;;;5093158;28;20058;-81
2023/08/02 04:32:21;;;;;;;11.23;8.00;;;537.90;2406.40;;;;;;5094856;28;20056;-81
2023/08/02 04:34:47;;;;;;;13.82;7.53;;;538.00;2406.40;;;;;;5093193;28;20028;-82
2023/08/02 04:37:13;;;;;;;11.45;7.57;;;538.10;2406.40;;;;;;5094309;28;20036;-83
2023/08/02 04:39:38;;;;;;;13.80;7.68;;;538.20;2406.40;;;;;;5092943;28;20059;-83
2023/08/02 04:42:04;;;;;;;13.05;7.75;;;538.30;2406.40;;;;;;5093153;28;20020;-81
2023/08/02 04:44:30;;;;;;;14.20;7.45;;;538.30;2406.40;;;;;;5092702;28;20024;-83
2023/08/02 04:46:56;;;;;;;16.40;8.00;;;538.00;2406.40;;;;;;5093256;28;20043;-83
2023/08/02 04:49:22;;;;;;;14.50;8.73;;;538.20;2406.40;;;;;;5093207;28;20116;-82
2023/08/02 04:51:48;;;;;;;20.30;9.40;;;538.00;2406.40;;;;;;5094535;28;20047;-83
2023/08/02 04:54:13;;;;;;;11.95;7.15;;;538.10;2406.40;;;;;;5093046;28;20486;-81
2023/08/02 04:56:39;;;;;;;11.20;7.72;;;538.10;2406.40;;;;;;5092700;28;20077;-83
2023/08/02 04:59:10;;;;;;;12.20;7.63;;;538.10;2406.40;;;;;;5093025;28;20074;-83
2023/08/02 05:01:35;;;;;;;12.77;7.82;;;538.30;2406.40;;;;;;5093007;28;20024;-82
2023/08/02 05:04:02;;;;;;;12.82;7.70;;;538.30;2406.40;;;;;;5092791;28;20525;-83
2023/08/02 05:06:27;;;;;;;12.70;8.07;;;538.50;2406.40;;;;;;5094356;28;20028;-81
2023/08/02 05:08:53;;;;;;;17.02;9.27;;;538.50;2406.40;;;;;;5092915;28;20527;-82
2023/08/02 05:11:19;;;;;;;10.75;7.43;;;538.50;2406.40;;;;;;5095982;28;20111;-81
2023/08/02 05:13:45;;;;;;;10.23;7.55;;;538.50;2406.40;;;;;;5097152;28;20081;-82
2023/08/02 05:16:14;;;;;;;11.55;7.45;;;563.20;2432.00;;;;;;5097075;28;20172;-81
2023/08/02 05:18:40;;;;;;;9.73;7.10;;;563.40;2432.00;;;;;;5096742;28;20094;-82
2023/08/02 05:21:13;;;;;;;9.65;6.45;;;563.50;2432.00;;;;;;5098091;28;20024;-83
2023/08/02 05:23:40;;;;;;;9.65;6.75;;;538.50;2406.40;;;;;;5096570;28;20031;-84
2023/08/02 05:26:07;;;;;;;15.00;7.65;;;563.50;2432.00;;;;;;5098119;28;20024;-81
2023/08/02 05:28:33;;;;;;;12.70;7.40;;;563.80;2432.00;;;;;;5096815;28;20032;-82
2023/08/02 05:30:59;;;;;;;11.82;6.47;;;563.90;2432.00;;;;;;5096811;28;20020;-82
2023/08/02 05:33:25;;;;;;;15.60;7.55;;;564.00;2432.00;;;;;;5096413;28;20024;-82
2023/08/02 05:35:51;;;;;;;12.40;7.90;;;564.00;2432.00;;;;;;5096632;28;20375;-83
2023/08/02 05:38:17;;;;;;;15.88;8.02;;;564.10;2432.00;;;;;;5096760;28;20078;-82
2023/08/02 05:40:43;;;;;;;14.05;7.32;;;564.10;2432.00;;;;;;5096303;28;20024;-84
2023/08/02 05:43:09;;;;;;;11.98;7.90;;;588.80;2432.00;;;;;;5096841;28;20114;-84
2023/08/02 05:45:35;;;;;;;11.45;8.15;;;588.80;2432.00;;;;;;5096417;28;20059;-83
2023/08/02 05:48:01;;;;;;;12.68;7.95;;;588.80;2432.00;;;;;;5097524;28;20043;-82
2023/08/02 05:50:28;;;;;;;12.27;7.20;;;588.90;2432.00;;;;;;5099716;28;20035;-82
2023/08/02 05:52:54;;;;;;;13.00;7.30;;;589.00;2432.00;;;;;;5096855;28;20100;-83
2023/08/02 05:55:21;;;;;;;12.40;7.78;;;589.10;2432.00;;;;;;5097536;28;20417;-82
2023/08/02 05:57:48;;;;;;;12.27;7.22;;;589.10;2432.00;;;;;;5096124;28;20388;-83
2023/08/02 06:00:15;;;;;;;12.75;7.28;;;589.10;2432.00;;;;;;5097169;28;20016;-82
2023/08/02 06:02:41;;;;;;;13.40;7.85;;;589.20;2432.00;;;;;;5097139;28;20020;-82
2023/08/02 06:05:07;;;;;;;11.80;7.15;;;589.10;2432.00;;;;;;5096095;28;20464;-83
2023/08/02 06:07:33;;;;;;;9.13;6.95;;;589.10;2432.00;;;;;;5095852;28;20605;-82
2023/08/02 06:09:59;;;;;;;11.98;6.97;;;589.10;2432.00;;;;;;5095670;28;20077;-83
2023/08/02 06:12:25;;;;;;;11.05;7.53;;;589.20;2432.00;;;;;;5095949;28;20024;-83
2023/08/02 06:14:50;;;;;;;15.32;7.00;;;589.30;2432.00;;;;;;5095607;28;20024;-85
2023/08/02 06:17:16;;;;;;;13.40;7.40;;;589.40;2432.00;;;;;;5095883;28;20544;-83
2023/08/02 06:19:42;;;;;;;9.98;5.90;;;589.40;2432.00;;;;;;5095847;28;20021;-84
2023/08/02 06:22:09;;;;;;;14.18;7.10;;;589.60;2432.00;;;;;;5094698;28;20035;-82
2023/08/02 06:24:34;;;;;;;8.85;7.25;;;589.70;2432.00;;;;;;5095741;28;20024;-85
2023/08/02 06:27:00;;;;;;;11.98;6.72;;;589.70;2432.00;;;;;;5096986;28;20024;-83
2023/08/02 06:29:26;;;;;;;14.60;6.72;;;589.70;2432.00;;;;;;5090906;28;20464;-83
2023/08/02 06:31:52;;;;;;;9.38;6.95;;;589.60;2432.00;;;;;;5092390;28;20020;-83
2023/08/02 06:34:18;;;;;;;12.82;7.32;;;589.70;2432.00;;;;;;5076611;28;20051;-82
2023/08/02 06:36:43;;;;;;;9.52;7.03;;;614.50;2432.00;;;;;;5076403;28;20024;-84
2023/08/02 06:39:09;;;;;;;9.60;6.57;;;614.70;2432.00;;;;;;5092198;28;20063;-83
2023/08/02 06:41:35;;;;;;;9.77;7.45;;;614.90;2432.00;;;;;;5102201;28;20005;-82
2023/08/02 06:44:01;;;;;;;13.68;7.35;;;614.80;2432.00;;;;;;5101241;28;20028;-82
2023/08/02 06:46:28;;;;;;;11.15;7.57;;;614.90;2432.00;;;;;;5095733;28;20060;-84
2023/08/02 06:48:53;;;;;;;10.27;6.20;;;615.00;2432.00;;;;;;5095455;28;20028;-84
2023/08/02 06:51:19;;;;;;;10.73;6.50;;;614.80;2432.00;;;;;;5095560;28;20043;-84
2023/08/02 06:53:45;;;;;;;10.55;6.15;;;615.00;2432.00;;;;;;5095374;28;20084;-84
2023/08/02 06:56:18;;;;;;;11.45;8.07;;;615.10;2432.00;;;;;;5094952;28;20468;-83
2023/08/02 06:58:44;;;;;;;10.25;7.53;;;615.20;2432.00;;;;;;5092501;28;20028;-84
2023/08/02 07:01:23;;;;;;;13.57;6.25;;;640.00;2432.00;;;;;;5096273;28;20021;-83
2023/08/02 07:03:49;;;;;;;9.85;5.95;;;640.10;2432.00;;;;;;5111855;28;20052;-84
2023/08/02 07:06:18;;;;;;;8.95;6.18;;;640.20;2432.00;;;;;;5112199;28;20077;-82
2023/08/02 07:08:45;;;;;;;9.98;6.07;;;640.40;2432.00;;;;;;5112010;28;20039;-84
2023/08/02 07:11:11;;;;;;;8.13;5.70;;;640.20;2432.00;;;;;;5111452;28;20044;-84
2023/08/02 07:13:37;;;;;;;13.13;8.38;;;640.80;2432.00;;;;;;5111961;28;20093;-83
2023/08/02 07:16:04;;;;;;;11.20;8.05;;;640.90;2432.00;;;;;;5112392;28;20520;-85
2023/08/02 07:18:31;;;;;;;12.57;7.38;;;640.90;2432.00;;;;;;5096162;28;20035;-84
2023/08/02 07:21:06;;;;;;;8.07;6.63;;;665.60;2432.00;;;;;;5112408;28;20128;-84
2023/08/02 07:23:32;;;;;;;12.32;7.15;;;665.80;2432.00;;;;;;5115566;28;20028;-83
2023/08/02 07:25:58;;;;;;;10.15;6.70;;;665.90;2432.00;;;;;;5123738;28;20031;-84
2023/08/02 07:28:23;;;;;;;9.73;6.53;;;665.90;2432.00;;;;;;5123975;28;20032;-82
2023/08/02 07:30:49;;;;;;;12.30;7.15;;;666.00;2432.00;;;;;;5107714;28;20380;-83
2023/08/02 07:33:15;;;;;;;8.57;6.68;;;666.00;2432.00;;;;;;5117571;28;20024;-83
2023/08/02 07:35:41;;;;;;;8.35;6.35;;;666.10;2432.00;;;;;;5111569;28;20055;-84
2023/08/02 07:38:06;;;;;;;10.05;6.32;;;666.30;2432.00;;;;;;5111678;28;20028;-83
2023/08/02 07:40:33;;;;;;;11.43;6.53;;;666.30;2432.00;;;;;;5114996;28;20028;-82
2023/08/02 07:42:59;;;;;;;9.80;6.57;;;666.40;2432.00;;;;;;5112797;28;20031;-84
2023/08/02 07:45:24;;;;;;;11.88;7.43;;;666.50;2432.00;;;;;;5111025;28;20019;-83
2023/08/02 07:47:50;;;;;;;11.70;7.10;;;666.50;2432.00;;;;;;5111329;28;20039;-84
2023/08/02 07:50:16;;;;;;;16.95;5.75;;;691.30;2432.00;;;;;;5111202;28;20024;-83
2023/08/02 07:52:42;;;;;;;9.50;6.35;;;691.30;2432.00;;;;;;5110682;28;20032;-85
2023/08/02 07:55:08;;;;;;;7.55;5.75;;;691.40;2432.00;;;;;;5111162;28;20077;-82
2023/08/02 07:57:34;;;;;;;7.05;5.57;;;691.40;2432.00;;;;;;5111016;28;20039;-82
2023/08/02 08:00:00;;;;;;;8.65;5.97;;;691.60;2432.00;;;;;;5094910;28;20035;-84
2023/08/02 08:02:27;;;;;;;9.65;5.80;;;691.60;2432.00;;;;;;5110971;28;20467;-85
2023/08/02 08:04:54;;;;;;;11.90;5.65;;;691.70;2432.00;;;;;;5110203;28;20032;-83
2023/08/02 08:07:20;;;;;;;12.63;6.43;;;691.80;2432.00;;;;;;5094686;28;20112;-81
2023/08/02 08:09:46;;;;;;;10.95;6.03;;;691.90;2432.00;;;;;;5093954;28;20158;-81
2023/08/02 08:12:11;;;;;;;9.35;6.00;;;692.00;2432.00;;;;;;5090271;28;20463;-83
2023/08/02 08:14:38;;;;;;;11.27;6.90;;;716.80;2432.00;;;;;;5094425;28;20028;-82
2023/08/02 08:17:04;;;;;;;11.40;6.05;;;716.80;2432.00;;;;;;5110524;28;20126;-82
2023/08/02 08:19:31;;;;;;;9.75;6.05;;;716.80;2432.00;;;;;;5094613;28;20187;-80
2023/08/02 08:21:57;;;;;;;9.80;6.50;;;691.90;2432.00;;;;;;5110805;28;20028;-82
2023/08/02 08:24:23;;;;;;;12.55;6.72;;;716.80;2432.00;;;;;;5110527;28;20034;-82
2023/08/02 08:26:50;;;;;;;10.77;6.70;;;717.00;2432.00;;;;;;5110242;28;20031;-81
2023/08/02 08:29:16;;;;;;;9.90;6.43;;;717.20;2432.00;;;;;;5094440;28;20387;-82
2023/08/02 08:31:42;;;;;;;10.27;5.95;;;717.20;2432.00;;;;;;5110337;28;20046;-83
2023/08/02 08:34:08;;;;;;;9.35;6.13;;;717.40;2432.00;;;;;;5096550;28;20446;-80
2023/08/02 08:36:34;;;;;;;11.55;6.10;;;717.60;2432.00;;;;;;5096972;28;20054;-82
2023/08/02 08:39:00;;;;;;;13.30;6.72;;;717.60;2432.00;;;;;;5110292;28;20464;-81
2023/08/02 08:41:26;;;;;;;9.32;6.13;;;717.70;2432.00;;;;;;5109889;28;20028;-80
2023/08/02 08:43:52;;;;;;;11.88;5.82;;;717.70;2432.00;;;;;;5110181;28;20472;-84
2023/08/02 08:46:18;;;;;;;11.80;6.30;;;717.60;2432.00;;;;;;5093960;28;20028;-86
2023/08/02 08:48:44;;;;;;;10.25;6.43;;;717.50;2432.00;;;;;;5109812;28;20059;-86
2023/08/02 08:51:12;;;;;;;10.32;6.15;;;742.50;2432.00;;;;;;5110242;28;20051;-83
2023/08/02 08:53:42;;;;;;;11.63;6.57;;;742.50;2432.00;;;;;;5110154;28;20482;-84
2023/08/02 08:56:09;;;;;;;8.52;5.90;;;742.50;2432.00;;;;;;5094260;28;20048;-83
2023/08/02 08:58:36;;;;;;;8.25;6.18;;;742.70;2432.00;;;;;;5109804;28;20034;-84
2023/08/02 09:01:06;;;;;;;7.88;6.40;;;742.90;2432.00;;;;;;5109950;28;20028;-83
2023/08/02 09:03:35;;;;;;;7.97;5.38;;;742.90;2432.00;;;;;;5109582;28;20122;-84
2023/08/02 09:06:02;;;;;;;9.40;5.68;;;743.10;2432.00;;;;;;5109963;28;20090;-82
2023/08/02 09:08:29;;;;;;;8.48;5.85;;;743.30;2432.00;;;;;;5109449;28;20024;-84
2023/08/02 09:10:55;;;;;;;7.25;5.53;;;;;;;;;;5109626;28;20055;-84
2023/08/02 09:13:25;;;;;;;7.38;5.25;;;768.40;2406.40;;;;;;5092945;28;20052;-83
2023/08/02 09:16:10;;;;;;;10.43;5.85;;;768.30;2406.40;;;;;;5109481;28;20051;-84
2023/08/02 09:18:41;;;;;;;16.05;5.75;;;768.20;2406.40;;;;;;5109807;28;20032;-88
2023/08/02 09:21:10;;;;;;;13.13;5.88;;;768.40;2406.40;;;;;;5109892;28;20020;-87
2023/08/02 09:23:36;;;;;;;9.00;5.40;;;768.40;2380.80;;;;;;5109645;28;20024;-88
2023/08/02 09:26:20;;;;;;;15.35;6.47;;;768.40;2406.40;;;;;;5109754;28;20372;-85
2023/08/02 09:29:06;;;;;;;10.00;6.18;;;768.60;2380.80;;;;;;5109731;28;20035;-86
2023/08/02 09:31:36;;;;;;;14.32;5.97;;;768.60;2355.20;;;;;;5110016;28;20036;-85
2023/08/02 09:34:03;;;;;;;10.68;5.60;;;768.30;2380.80;;;;;;5110008;28;20039;-85
2023/08/02 09:36:30;;;;;;;12.35;6.03;;;;;;;;;;5093588;28;20031;-84
2023/08/02 09:39:01;;;;;;;7.97;5.53;;;;;;;;;;5091378;28;20408;-83
2023/08/02 09:41:27;;;;;;;9.55;5.90;;;742.90;2432.00;;;;;;5074650;28;20119;-84
2023/08/02 09:43:54;;;;;;;8.90;6.00;;;742.70;2432.00;;;;;;5091339;28;20039;-84
2023/08/02 09:46:27;;;;;;;8.07;5.82;;;742.80;2432.00;;;;;;5074872;28;20357;-85
2023/08/02 09:48:53;;;;;;;7.03;5.20;;;743.00;2432.00;;;;;;5091534;28;20074;-86
2023/08/02 09:51:18;;;;;;;7.95;6.43;;;743.10;2432.00;;;;;;5074576;28;20052;-85
2023/08/02 09:54:02;;;;;;;9.77;5.57;;;743.10;2432.00;;;;;;5074423;28;20480;-83
2023/08/02 09:56:29;;;;;;;7.03;5.13;;;743.10;2432.00;;;;;;5074933;28;20031;-86
2023/08/02 09:58:56;;;;;;;7.85;5.57;;;743.00;2432.00;;;;;;5097930;28;20040;-86
2023/08/02 10:01:25;;;;;;;8.63;4.57;;;743.30;2432.00;;;;;;5101538;28;20024;-83
2023/08/02 10:03:57;;;;;;;5.75;3.55;;;743.00;2432.00;;;;;;5081989;28;20060;-85
2023/08/02 10:06:33;;;;;;;7.25;4.93;;;743.10;2432.00;;;;;;5080264;28;20040;-84
2023/08/02 10:09:04;;;;;;;7.50;3.92;;;743.30;2432.00;;;;;;5082097;28;20052;-83
2023/08/02 10:11:34;;;;;;;9.52;3.97;;;768.40;2380.80;;;;;;5079782;28;20044;-86
2023/08/02 10:14:03;;;;;;;5.35;4.18;;;768.60;2380.80;;;;;;5077285;28;20036;-87
2023/08/02 10:16:29;;;;;;;8.55;4.72;;;793.70;2355.20;;;;;;5076039;28;20029;-85
2023/08/02 10:18:56;;;;;;;6.13;4.20;;;794.00;2355.20;;;;;;5075671;28;20127;-85
2023/08/02 10:21:23;;;;;;;7.22;3.90;;;794.30;2329.60;;;;;;5076012;28;20032;-86
2023/08/02 10:23:49;;;;;;;8.90;4.45;;;794.20;2329.60;;;;;;5076040;28;20021;-86
2023/08/02 10:26:16;;;;;;;5.95;4.70;;;794.40;2304.00;;;;;;5075836;28;20415;-86
2023/08/02 10:28:42;;;;;;;6.05;3.72;;;794.40;2278.40;;;;;;5076754;28;20556;-86
2023/08/02 10:31:10;;;;;;;7.90;4.25;;;793.70;2329.60;;;;;;5079596;28;20024;-85
2023/08/02 10:33:35;;;;;;;12.55;4.85;;;794.00;2329.60;;;;;;5079613;28;20029;-85
2023/08/02 10:36:06;;;;;;;10.75;4.60;;;794.10;2329.60;;;;;;5078791;28;20035;-87
2023/08/02 10:38:41;;;;;;;6.37;4.80;;;819.20;2304.00;;;;;;5079487;28;20035;-84
2023/08/02 10:41:09;;;;;;;6.97;4.75;;;819.30;2252.80;;;;;;5080164;28;20261;-86
2023/08/02 10:43:55;;;;;;;6.95;4.68;;;819.30;2278.40;;;;;;5082226;28;20136;-85
2023/08/02 10:46:28;;;;;;;7.70;4.22;;;794.50;2304.00;;;;;;5090132;28;20030;-87
2023/08/02 10:49:15;;;;;;;8.48;4.18;;;819.40;2252.80;;;;;;5095371;28;20104;-87
2023/08/02 10:51:42;;;;;;;6.88;4.55;;;819.50;2252.80;;;;;;5092351;28;20016;-85
2023/08/02 10:54:25;;;;;;;6.85;4.35;;;819.60;2227.20;;;;;;5095797;28;20110;-85
2023/08/02 10:56:51;;;;;;;8.60;4.70;;;819.80;2252.80;;;;;;5111213;28;20020;-86
2023/08/02 10:59:40;;;;;;;7.60;5.15;;;820.10;2227.20;;;;;;5113096;28;20099;-86
2023/08/02 11:02:13;;;;;;;8.15;4.80;;;844.80;2227.20;;;;;;5092763;28;20024;-85
2023/08/02 11:04:45;;;;;;;10.60;4.47;;;845.40;2201.60;;;;;;5095447;28;20464;-84
2023/08/02 11:07:18;;;;;;;6.43;4.35;;;845.40;2201.60;;;;;;5095453;28;20486;-83
2023/08/02 11:09:45;;;;;;;9.13;4.72;;;845.40;2176.00;;;;;;5095357;28;20048;-83
2023/08/02 11:12:13;;;;;;;9.55;4.18;;;845.20;2176.00;;;;;;5095206;28;20085;-82
2023/08/02 11:14:40;;;;;;;6.93;4.63;;;845.20;2201.60;;;;;;5096149;28;20059;-82
2023/08/02 11:17:08;;;;;;;7.15;4.93;;;845.00;2201.60;;;;;;5098580;28;20020;-87
2023/08/02 11:19:37;;;;;;;5.50;4.25;;;844.90;2201.60;;;;;;5100153;28;20020;-86
2023/08/02 11:22:03;;;;;;;6.82;4.70;;;844.90;2201.60;;;;;;5095022;28;20547;-84
2023/08/02 11:24:44;;;;;;;10.40;5.07;;;844.90;2201.60;;;;;;5094935;28;20379;-84
2023/08/02 11:27:21;;;;;;;7.90;4.82;;;845.20;2201.60;;;;;;5095017;28;20024;-85
2023/08/02 11:30:00;;;;;;;7.93;5.40;;;845.50;2176.00;;;;;;5094642;28;20060;-86
2023/08/02 11:32:26;;;;;;;7.85;5.10;;;845.70;2150.40;;;;;;5091955;28;20119;-86
2023/08/02 11:34:53;;;;;;;6.03;4.28;;;870.40;2150.40;;;;;;5094616;28;20028;-85
2023/08/02 11:37:19;;;;;;;6.93;4.95;;;845.70;2124.80;;;;;;5095751;28;20032;-86
2023/08/02 11:39:53;;;;;;;6.35;4.45;;;845.40;2124.80;;;;;;5094560;28;20020;-86
2023/08/02 11:42:19;;;;;;;8.18;5.20;;;845.30;2124.80;;;;;;5094404;28;20468;-85
2023/08/02 11:44:44;;;;;;;9.05;5.13;;;845.50;2124.80;;;;;;5095044;28;20031;-86
2023/08/02 11:47:12;;;;;;;8.10;5.50;;;845.70;2124.80;;;;;;5094555;28;20036;-85
2023/08/02 11:49:51;;;;;;;10.13;5.57;;;870.50;2124.80;;;;;;5094314;28;20024;-86
2023/08/02 11:52:28;;;;;;;7.05;4.68;;;845.70;2150.40;;;;;;5094525;28;20118;-85
2023/08/02 11:54:55;;;;;;;7.25;5.22;;;845.70;2124.80;;;;;;5094586;28;20122;-87
2023/08/02 11:57:22;;;;;;;9.10;5.28;;;845.60;2150.40;;;;;;5084343;28;20043;-84
2023/08/02 11:59:50;;;;;;;9.40;5.78;;;870.70;2099.20;;;;;;5093418;28;20039;-84
2023/08/02 12:02:30;;;;;;;6.82;5.10;;;870.90;2073.60;;;;;;5094244;28;20387;-82
2023/08/02 12:04:57;;;;;;;9.40;6.53;;;871.20;2073.60;;;;;;5094205;28;20047;-84
2023/08/02 12:07:27;;;;;;;7.65;4.80;;;871.30;2022.40;;;;;;5094968;28;20468;-83
2023/08/02 12:09:53;;;;;;;8.45;4.88;;;871.00;2022.40;;;;;;5094947;28;20052;-84
2023/08/02 12:12:19;;;;;;;7.32;5.32;;;870.70;2073.60;;;;;;5093017;28;20028;-85
2023/08/02 12:14:45;;;;;;;8.77;5.43;;;870.50;2073.60;;;;;;5111161;28;20486;-85